Elko New Market, Minnesota
Current Conditions -  °F | °C
As of 3:26 AM on Thursday 27 Nov 2014 (Local Time) from KLVN Reporting Station
Clear Clear  
Wind Chill: -12°   Ceiling: Unl
Heat Index:   Visibility: 10mi
Dew Point: -4°   Wind: 8mph
Humidity: 78%   Direction: 330°NNW
Pressure: 30.44"   Gusts: NA
Location:  44.56°N, 93.33°W
Report Text: KLVN 270926Z AUTO 33007KT 10SM CLR M17/M20 A3044 RMK AO2
Loading
Personal Weather Stations






























Interactive Weather Map New forecast layout! Learn more

10-Day Weather Forecast

Advertisements
Track Severe Weather on mobile